createdAt,value
2022-11-10T00:02:30.212Z,100300.59
2022-11-10T00:05:16.262Z,100297.97
2022-11-10T00:08:12.108Z,100300.59
2022-11-10T00:10:58.286Z,100294.47
2022-11-10T00:14:06.838Z,100301.50
2022-11-10T00:17:02.328Z,100298.00
2022-11-10T00:19:47.980Z,100290.19
2022-11-10T00:22:34.938Z,100294.59
2022-11-10T00:25:20.808Z,100289.34
2022-11-10T00:28:06.953Z,100286.72
2022-11-10T00:30:52.403Z,100290.19
2022-11-10T00:33:39.692Z,100282.34
2022-11-10T00:36:25.586Z,100273.63
2022-11-10T00:39:11.933Z,100273.63
2022-11-10T00:41:58.003Z,100280.59
2022-11-10T00:44:43.633Z,100277.97
2022-11-10T00:47:29.425Z,100273.59
2022-11-10T00:50:16.409Z,100275.34
2022-11-10T00:53:02.271Z,100270.13
2022-11-10T00:55:49.211Z,100270.09
2022-11-10T00:58:34.990Z,100271.88
2022-11-10T01:01:22.624Z,100270.13
2022-11-10T01:04:08.121Z,100267.50
2022-11-10T01:06:53.925Z,100264.94
2022-11-10T01:09:39.908Z,100269.31
2022-11-10T01:12:29.941Z,100265.84
2022-11-10T01:15:15.965Z,100267.59
2022-11-10T01:18:01.987Z,100257.16
2022-11-10T01:20:51.701Z,100256.25
2022-11-10T01:23:37.633Z,100255.41
2022-11-10T01:26:24.236Z,100262.38
2022-11-10T01:29:09.813Z,100259.75
2022-11-10T01:31:55.797Z,100265.00
2022-11-10T01:34:41.303Z,100251.88
2022-11-10T01:37:27.513Z,100256.16
2022-11-10T01:40:13.749Z,100252.63
2022-11-10T01:42:59.498Z,100258.63
2022-11-10T01:45:47.785Z,100255.03
2022-11-10T01:48:38.836Z,100252.31
2022-11-10T01:51:39.896Z,100256.59
2022-11-10T01:54:29.650Z,100257.38
2022-11-10T01:57:16.673Z,100258.19
2022-11-10T02:00:02.937Z,100252.91
2022-11-10T02:02:59.282Z,100251.13
2022-11-10T02:05:45.410Z,100257.16
2022-11-10T02:08:31.431Z,100255.38
2022-11-10T02:11:17.230Z,100255.28
2022-11-10T02:14:03.090Z,100255.28
2022-11-10T02:16:48.952Z,100263.97
2022-11-10T02:19:41.876Z,100257.84
2022-11-10T02:22:27.984Z,100257.81
2022-11-10T02:25:21.118Z,100254.25
2022-11-10T02:28:06.633Z,100254.28
2022-11-10T02:30:52.547Z,100262.94
2022-11-10T02:33:38.256Z,100263.78
2022-11-10T02:36:23.982Z,100259.38
2022-11-10T02:39:09.697Z,100253.16
2022-11-10T02:41:55.488Z,100259.34
2022-11-10T02:44:41.883Z,100261.88
2022-11-10T02:47:28.276Z,100257.41
2022-11-10T02:50:13.851Z,100259.09
2022-11-10T02:52:59.340Z,100245.13
2022-11-10T02:55:45.422Z,100254.84
2022-11-10T02:58:30.913Z,100242.56
2022-11-10T03:01:16.332Z,100249.56
2022-11-10T03:04:02.467Z,100246.09
2022-11-10T03:06:48.238Z,100243.59
2022-11-10T03:09:34.099Z,100241.69
2022-11-10T03:12:19.538Z,100236.50
2022-11-10T03:15:05.996Z,100238.09
2022-11-10T03:17:52.377Z,100231.97
2022-11-10T03:20:37.797Z,100225.91
2022-11-10T03:23:24.095Z,100232.81
2022-11-10T03:26:09.866Z,100240.72
2022-11-10T03:28:55.417Z,100234.66
2022-11-10T03:31:40.834Z,100233.81
2022-11-10T03:34:30.787Z,100239.88
2022-11-10T03:37:17.195Z,100233.81
2022-11-10T03:40:03.182Z,100240.72
2022-11-10T03:42:49.093Z,100239.84
2022-11-10T03:45:35.127Z,100234.69
2022-11-10T03:48:21.258Z,100230.25
2022-11-10T03:51:07.273Z,100225.03
2022-11-10T03:53:52.891Z,100234.66
2022-11-10T03:56:38.904Z,100238.97
2022-11-10T03:59:24.883Z,100224.84
2022-11-10T04:02:10.924Z,100227.31
2022-11-10T04:05:15.561Z,100225.56
2022-11-10T04:08:20.662Z,100238.63
2022-11-10T04:11:06.806Z,100231.63
2022-11-10T04:14:11.026Z,100233.22
2022-11-10T04:16:57.346Z,100237.59
2022-11-10T04:19:43.024Z,100229.78
2022-11-10T04:22:47.157Z,100230.59
2022-11-10T04:25:52.775Z,100227.09
2022-11-10T04:28:39.472Z,100245.44
2022-11-10T04:31:26.761Z,100236.72
2022-11-10T04:34:14.749Z,100240.19
2022-11-10T04:37:00.407Z,100237.56
2022-11-10T04:39:45.815Z,100246.34
2022-11-10T04:42:31.908Z,100243.69
2022-11-10T04:45:17.378Z,100249.66
2022-11-10T04:48:03.288Z,100241.84
2022-11-10T04:50:49.377Z,100247.13
2022-11-10T04:53:35.172Z,100239.19
2022-11-10T06:20:23.440Z,100318.97
2022-11-10T06:23:13.105Z,100319.66
2022-11-10T06:25:58.941Z,100313.31
2022-11-10T06:28:46.738Z,100323.47
2022-11-10T06:31:32.700Z,100324.94
2022-11-10T06:34:18.311Z,100331.72
2022-11-10T06:37:04.293Z,100322.72
2022-11-10T06:39:49.733Z,100327.75
2022-11-10T06:42:35.665Z,100332.81
2022-11-10T06:45:22.161Z,100334.25
2022-11-10T06:48:14.001Z,100328.81
2022-11-10T06:51:03.152Z,100326.06
2022-11-10T06:53:49.290Z,100326.69
2022-11-10T06:56:35.433Z,100323.88
2022-11-10T06:59:21.270Z,100323.03
2022-11-10T07:02:09.699Z,100331.69
2022-11-10T07:04:55.495Z,100321.81
2022-11-10T07:07:41.682Z,100326.97
2022-11-10T07:10:27.489Z,100328.63
2022-11-10T07:13:13.182Z,100324.38
2022-11-10T07:15:58.886Z,100329.53
2022-11-10T07:18:44.491Z,100321.47
2022-11-10T07:21:30.722Z,100327.41
2022-11-10T07:24:16.521Z,100321.88
2022-11-10T07:27:02.067Z,100317.50
2022-11-10T07:29:47.729Z,100326.97
2022-11-10T07:32:33.692Z,100325.13
2022-11-10T07:35:19.475Z,100331.28
2022-11-10T07:38:08.471Z,100323.44
2022-11-10T07:40:54.384Z,100330.38
2022-11-10T07:43:40.018Z,100333.72
2022-11-10T07:46:25.851Z,100338.69
2022-11-10T07:49:11.958Z,100334.22
2022-11-10T07:51:58.007Z,100330.47
2022-11-10T07:54:43.758Z,100328.72
2022-11-10T07:57:29.450Z,100326.78
2022-11-10T08:00:16.792Z,100329.19
2022-11-10T08:03:16.299Z,100334.38
2022-11-10T08:06:01.832Z,100330.81
2022-11-10T08:08:48.017Z,100330.06
2022-11-10T08:11:33.756Z,100324.03
2022-11-10T08:14:19.386Z,100321.56
2022-11-10T08:17:04.926Z,100326.56
2022-11-10T08:19:50.822Z,100329.88
2022-11-10T08:22:36.531Z,100336.03
2022-11-10T08:25:22.123Z,100339.84
2022-11-10T08:28:10.338Z,100336.25
2022-11-10T08:30:57.769Z,100343.09
2022-11-10T08:33:45.054Z,100339.66
2022-11-10T08:36:30.906Z,100348.34
2022-11-10T08:39:30.293Z,100341.09
2022-11-10T08:42:22.091Z,100347.06
2022-11-10T08:45:07.498Z,100344.56
2022-11-10T08:48:00.255Z,100344.16
2022-11-10T08:50:47.731Z,100344.38
2022-11-10T08:53:33.639Z,100344.56
2022-11-10T08:56:19.421Z,100351.06
2022-11-10T08:59:04.882Z,100345.81
2022-11-10T09:01:50.350Z,100348.00
2022-11-10T09:04:36.103Z,100344.50
2022-11-10T09:07:21.902Z,100340.97
2022-11-10T09:10:08.418Z,100349.78
2022-11-10T09:12:54.134Z,100343.69
2022-11-10T09:15:41.669Z,100346.16
2022-11-10T09:18:27.255Z,100338.06
2022-11-10T09:21:13.000Z,100344.97
2022-11-10T09:23:58.691Z,100337.25
2022-11-10T09:26:47.733Z,100342.44
2022-11-10T09:29:33.489Z,100341.59
2022-11-10T09:32:18.894Z,100346.00
2022-11-10T09:35:04.503Z,100342.53
2022-11-10T09:37:50.612Z,100348.38
2022-11-10T09:41:02.772Z,100345.63
2022-11-10T09:44:24.691Z,100337.50
2022-11-10T09:47:42.466Z,100346.16
2022-11-10T09:50:31.531Z,100345.34
2022-11-10T09:53:23.210Z,100347.19
2022-11-10T09:56:16.363Z,100350.69
2022-11-10T09:59:14.315Z,100343.75
2022-11-10T10:02:05.111Z,100342.22
2022-11-10T10:05:22.780Z,100345.81
2022-11-10T10:08:13.546Z,100356.22
2022-11-10T10:11:30.644Z,100349.22
2022-11-10T10:15:02.708Z,100346.50
2022-11-10T10:17:56.842Z,100344.88
2022-11-10T10:20:44.657Z,100345.88
2022-11-10T10:24:02.680Z,100353.63
2022-11-10T10:26:49.186Z,100347.25
2022-11-10T10:29:45.431Z,100353.31
2022-11-10T14:01:32.563Z,100377.13
2022-11-10T14:04:38.865Z,100366.31
2022-11-10T14:07:28.006Z,100368.69
2022-11-10T14:10:17.668Z,100375.31
2022-11-10T14:13:12.421Z,100364.47
2022-11-10T14:15:58.557Z,100375.63
2022-11-10T14:18:49.664Z,100377.09
2022-11-10T14:21:47.495Z,100376.91
2022-11-10T14:24:45.399Z,100373.09
2022-11-10T14:27:37.093Z,100365.16
2022-11-10T14:30:33.529Z,100375.66
2022-11-10T14:33:21.054Z,100362.44
2022-11-10T14:36:09.044Z,100366.88
2022-11-10T14:38:54.677Z,100366.00
2022-11-10T14:41:48.286Z,100368.50
2022-11-10T14:44:35.434Z,100368.50
2022-11-10T14:47:27.912Z,100358.84
2022-11-10T14:50:13.681Z,100367.69
2022-11-10T14:53:03.333Z,100366.88
2022-11-10T14:55:54.660Z,100360.41
2022-11-10T14:58:44.149Z,100364.88
2022-11-10T15:01:39.344Z,100365.59
2022-11-10T15:04:29.413Z,100370.81
2022-11-10T15:07:15.114Z,100374.53
2022-11-10T15:10:16.134Z,100361.31
2022-11-10T15:13:12.652Z,100367.56
2022-11-10T15:16:32.114Z,100373.72
2022-11-10T15:19:32.347Z,100376.50
2022-11-10T15:22:22.115Z,100377.50
2022-11-10T15:25:19.398Z,100376.63
2022-11-10T15:28:07.294Z,100379.25
2022-11-10T15:31:06.647Z,100379.16
2022-11-10T15:34:04.435Z,100371.31
2022-11-10T15:37:11.643Z,100356.25
2022-11-10T15:40:30.542Z,100369.41
2022-11-10T15:43:27.407Z,100363.38
2022-11-10T15:46:19.997Z,100370.22
2022-11-10T15:49:11.452Z,100373.06
2022-11-10T15:52:00.917Z,100368.69
2022-11-10T15:54:47.082Z,100362.44
2022-11-10T15:57:32.595Z,100368.63
2022-11-10T16:00:18.499Z,100373.06
2022-11-10T16:03:05.031Z,100372.06
2022-11-10T16:05:50.776Z,100372.97
2022-11-10T16:08:36.613Z,100388.00
2022-11-10T16:11:23.645Z,100386.22
2022-11-10T16:14:15.732Z,100392.19
2022-11-10T16:17:01.955Z,100390.56
2022-11-10T16:19:47.814Z,100386.16
2022-11-10T16:22:33.499Z,100385.13
2022-11-10T16:25:25.202Z,100374.53
2022-11-10T16:28:22.781Z,100377.13
2022-11-10T16:31:11.333Z,100375.41
2022-11-10T16:33:59.123Z,100383.38
2022-11-10T16:36:47.609Z,100389.63
2022-11-10T16:39:32.987Z,100379.06
2022-11-10T16:42:18.665Z,100387.03
2022-11-10T16:45:05.010Z,100384.22
2022-11-10T16:47:53.327Z,100395.78
2022-11-10T16:50:38.959Z,100387.91
2022-11-10T16:53:27.141Z,100390.50
2022-11-10T16:56:17.155Z,100388.00
2022-11-10T16:59:03.528Z,100385.22
2022-11-10T17:01:49.984Z,100395.81
2022-11-10T17:04:35.471Z,100393.16
2022-11-10T17:07:26.292Z,100388.66
2022-11-10T17:10:17.091Z,100391.34
2022-11-10T17:13:02.628Z,100389.47
2022-11-10T17:15:48.779Z,100385.00
2022-11-10T17:18:35.896Z,100383.28
2022-11-10T17:21:22.857Z,100380.63
2022-11-10T17:24:13.099Z,100383.13
2022-11-10T17:26:59.159Z,100380.41
2022-11-10T17:29:44.966Z,100374.19
2022-11-10T17:32:58.106Z,100371.41
2022-11-10T17:35:44.345Z,100372.19
2022-11-10T17:38:31.373Z,100359.97
2022-11-10T17:41:18.987Z,100371.16
2022-11-10T17:44:04.534Z,100372.00
2022-11-10T17:46:49.913Z,100377.25
2022-11-10T17:49:35.608Z,100370.22
2022-11-10T17:52:21.319Z,100369.09
2022-11-10T17:55:08.022Z,100383.19
2022-11-10T17:57:54.095Z,100392.16
2022-11-10T18:00:40.323Z,100381.47
2022-11-10T18:03:26.074Z,100400.75
2022-11-10T18:06:14.743Z,100397.25
2022-11-10T18:09:00.446Z,100403.41
2022-11-10T18:11:46.364Z,100394.66
2022-11-10T18:14:34.386Z,100396.41
2022-11-10T18:17:19.912Z,100395.66
2022-11-10T18:20:06.029Z,100396.25
2022-11-10T18:22:51.728Z,100393.56
2022-11-10T18:25:39.979Z,100394.47
2022-11-10T18:28:25.301Z,100404.06
2022-11-10T18:31:13.285Z,100396.22
2022-11-10T18:33:58.520Z,100391.84
2022-11-10T18:36:43.881Z,100402.38
2022-11-10T18:39:29.831Z,100405.00
2022-11-10T18:42:15.663Z,100394.50
2022-11-10T18:45:01.232Z,100405.69
2022-11-10T18:47:47.081Z,100400.44
2022-11-10T18:50:33.402Z,100396.88
2022-11-10T18:53:18.649Z,100402.09
2022-11-10T18:56:05.247Z,100405.47
2022-11-10T18:58:56.363Z,100403.75
2022-11-10T19:01:42.825Z,100398.41
2022-11-10T19:04:28.234Z,100406.41
2022-11-10T19:07:14.333Z,100404.56
2022-11-10T19:10:00.033Z,100405.38
2022-11-10T19:12:45.896Z,100413.47
2022-11-10T19:15:31.286Z,100415.16
2022-11-10T19:18:17.334Z,100414.25
2022-11-10T19:21:06.159Z,100417.03
2022-11-10T19:23:58.305Z,100415.44
2022-11-10T19:26:44.168Z,100416.56
2022-11-10T19:29:31.448Z,100407.72
2022-11-10T19:32:20.762Z,100406.66
2022-11-10T19:35:09.725Z,100410.19
2022-11-10T19:37:55.481Z,100412.13
2022-11-10T19:40:44.891Z,100403.34
2022-11-10T19:43:31.501Z,100412.13
2022-11-10T19:46:20.595Z,100402.34
2022-11-10T19:49:06.531Z,100406.81
2022-11-10T19:51:52.484Z,100410.47
2022-11-10T19:54:38.403Z,100413.31
2022-11-10T19:57:23.916Z,100416.03
2022-11-10T20:00:12.500Z,100416.84
2022-11-10T20:02:58.370Z,100417.66
2022-11-10T20:05:46.373Z,100418.53
2022-11-10T20:08:32.647Z,100414.06
2022-11-10T20:11:23.690Z,100425.47
2022-11-10T20:14:09.442Z,100422.69
2022-11-10T20:16:55.003Z,100426.34
2022-11-10T20:19:41.416Z,100421.97
2022-11-10T20:22:27.182Z,100418.56
2022-11-10T20:25:12.708Z,100424.66
2022-11-10T20:28:01.473Z,100421.22
2022-11-10T20:30:47.488Z,100424.72
2022-11-10T20:33:33.975Z,100422.97
2022-11-10T20:36:21.571Z,100421.16
2022-11-10T20:39:07.285Z,100424.50
2022-11-10T20:41:52.945Z,100433.16
2022-11-10T20:44:38.522Z,100423.28
2022-11-10T20:47:24.963Z,100429.31
2022-11-10T20:50:14.929Z,100424.00
2022-11-10T20:53:01.994Z,100432.53
2022-11-10T20:55:54.901Z,100423.63
2022-11-10T20:58:41.845Z,100433.22
2022-11-10T21:01:28.010Z,100427.75
2022-11-10T21:04:13.559Z,100425.88
2022-11-10T21:06:59.087Z,100437.19
2022-11-10T21:09:44.317Z,100438.16
2022-11-10T21:12:48.814Z,100442.31
2022-11-10T21:15:38.589Z,100450.19
2022-11-10T21:18:26.237Z,100447.34
2022-11-10T21:21:22.917Z,100456.94
2022-11-10T21:24:09.494Z,100455.13
2022-11-10T21:26:55.935Z,100447.16
2022-11-10T21:29:42.460Z,100451.47
2022-11-10T21:32:28.258Z,100454.97
2022-11-10T21:35:14.260Z,100445.13
2022-11-10T21:38:00.085Z,100453.91
2022-11-10T21:40:45.876Z,100458.25
2022-11-10T21:43:31.944Z,100458.25
2022-11-10T21:46:18.092Z,100455.56
2022-11-10T21:49:07.651Z,100459.88
2022-11-10T21:51:53.428Z,100458.09
2022-11-10T21:54:39.360Z,100452.75
2022-11-10T21:57:24.798Z,100449.16
2022-11-10T22:00:12.044Z,100457.09
2022-11-10T22:03:02.494Z,100454.50
2022-11-10T22:05:47.867Z,100453.56
2022-11-10T22:08:34.064Z,100454.41
2022-11-10T22:11:40.279Z,100457.16
2022-11-10T22:14:44.603Z,100460.72
2022-11-10T22:17:48.910Z,100460.91
2022-11-10T22:20:34.233Z,100468.09
2022-11-10T22:23:39.771Z,100462.03
2022-11-10T22:26:25.348Z,100464.84
2022-11-10T22:29:10.770Z,100463.13
2022-11-10T22:31:56.238Z,100467.69
2022-11-10T22:34:41.754Z,100463.44
2022-11-10T22:37:33.394Z,100468.88
2022-11-10T22:40:37.720Z,100472.38
2022-11-10T22:43:42.027Z,100478.63
2022-11-10T22:46:28.460Z,100479.63
2022-11-10T22:49:16.014Z,100478.78
2022-11-10T22:52:01.794Z,100476.16
2022-11-10T22:54:47.333Z,100477.94
2022-11-10T22:57:32.871Z,100471.75
2022-11-10T23:00:18.425Z,100474.44
2022-11-10T23:03:03.830Z,100478.84
2022-11-10T23:05:56.407Z,100477.03
2022-11-10T23:08:43.008Z,100479.75
2022-11-10T23:11:31.121Z,100475.38
2022-11-10T23:14:16.344Z,100476.31
2022-11-10T23:17:01.744Z,100476.31
2022-11-10T23:19:47.248Z,100474.53
2022-11-10T23:22:32.868Z,100482.41
2022-11-10T23:25:18.320Z,100482.38
2022-11-10T23:28:04.218Z,100479.72
2022-11-10T23:30:49.853Z,100481.56
2022-11-10T23:33:36.702Z,100483.31
2022-11-10T23:36:25.395Z,100486.88
2022-11-10T23:39:11.022Z,100483.25
2022-11-10T23:41:56.935Z,100486.91
2022-11-10T23:44:42.133Z,100492.94
2022-11-10T23:47:27.818Z,100490.25
2022-11-10T23:50:13.114Z,100497.31
2022-11-10T23:52:58.845Z,100497.28
2022-11-10T23:55:45.045Z,100502.59
2022-11-10T23:58:30.651Z,100504.28
